Cinebar, Washington
Current Conditions -  °F | °C
As of 8:15 PM on Wednesday 26 Nov 2014 (Local Time) from KCLS Reporting Station
NA  
Wind Chill: 59°   Ceiling: NA
Heat Index: 59°   Visibility: 10mi
Dew Point: 52°   Wind: 10mph
Humidity: 77%   Direction: 180°S
Pressure: 29.93"   Gusts: NA
Location:  46.6°N, 122.53°W
Report Text: KCLS 270415Z AUTO 18009KT 10SM 15/11 A2993 RMK AO2
Loading
Personal Weather Stations






























Interactive Weather Map New forecast layout! Learn more

10-Day Weather Forecast

Advertisements
Track Severe Weather on mobile